Time;durP1;ratioP1;P1;durP2;ratioP2;P2;SDS_P1;SDS_P2;PMS_P1;PMS_P2;Temp;Humidity;BMP_temperature;BMP_pressure;BME280_temperature;BME280_humidity;BME280_pressure;Samples;Min_cycle;Max_cycle;Signal;HPM_P1;HPM_P2
2021/12/09 00:01:32;;;;;;;58.20;32.63;;;2.00;99.90;;;;;;5002282;28;20289;-90
2021/12/09 00:04:02;;;;;;;53.13;29.00;;;2.00;99.90;;;;;;5000315;28;20313;-89
2021/12/09 00:06:30;;;;;;;59.42;28.27;;;2.00;99.90;;;;;;5017378;28;20207;-92
2021/12/09 00:09:03;;;;;;;51.10;28.45;;;2.00;99.90;;;;;;5017499;28;20175;-92
2021/12/09 00:11:29;;;;;;;55.15;28.75;;;2.00;99.90;;;;;;4999981;28;20290;-91
2021/12/09 00:13:56;;;;;;;59.83;28.73;;;2.00;99.90;;;;;;5001099;28;20199;-92
2021/12/09 00:16:22;;;;;;;63.00;29.75;;;1.90;99.90;;;;;;5017553;28;20203;-92
2021/12/09 00:18:48;;;;;;;61.90;29.73;;;1.90;99.90;;;;;;5000167;28;20214;-91
2021/12/09 00:21:14;;;;;;;56.97;31.05;;;1.90;99.90;;;;;;5000339;28;20519;-92
2021/12/09 00:23:40;;;;;;;55.85;27.67;;;1.80;99.90;;;;;;5000203;28;20183;-90
2021/12/09 00:26:07;;;;;;;46.63;25.95;;;1.80;99.90;;;;;;5017821;28;20207;-90
2021/12/09 00:28:33;;;;;;;55.05;27.85;;;1.80;99.90;;;;;;5000307;28;20724;-92
2021/12/09 00:30:58;;;;;;;59.75;28.45;;;1.80;99.90;;;;;;5017124;28;20684;-90
2021/12/09 00:33:24;;;;;;;55.60;29.40;;;1.80;99.90;;;;;;5017244;28;20163;-89
2021/12/09 00:35:56;;;;;;;62.30;30.63;;;1.80;99.90;;;;;;4999818;28;20199;-91
2021/12/09 00:38:34;;;;;;;61.20;29.05;;;1.70;99.90;;;;;;5000203;28;20659;-92
2021/12/09 00:41:03;;;;;;;45.47;24.13;;;1.70;99.90;;;;;;4999709;28;20231;-92
2021/12/09 00:43:29;;;;;;;51.03;24.98;;;1.70;99.90;;;;;;4999718;28;20175;-92
2021/12/09 00:45:57;;;;;;;48.43;26.60;;;1.70;99.90;;;;;;4996099;28;20243;-90
2021/12/09 00:48:23;;;;;;;57.90;27.98;;;1.70;99.90;;;;;;4980041;28;20188;-92
2021/12/09 00:50:49;;;;;;;54.67;26.67;;;1.70;99.90;;;;;;4981260;28;20202;-92
2021/12/09 00:53:15;;;;;;;59.67;27.30;;;1.70;99.90;;;;;;4980042;28;20194;-91
2021/12/09 00:55:41;;;;;;;52.67;27.93;;;1.70;99.90;;;;;;4979745;28;20196;-93
2021/12/09 00:58:06;;;;;;;60.30;29.00;;;1.70;99.90;;;;;;4980673;28;20176;-92
2021/12/09 01:00:32;;;;;;;49.63;25.87;;;1.70;99.90;;;;;;4996678;28;20219;-91
2021/12/09 01:02:59;;;;;;;56.10;28.03;;;1.70;99.90;;;;;;5001216;28;20190;-92
2021/12/09 01:05:26;;;;;;;55.80;27.52;;;1.70;99.90;;;;;;4987788;28;20457;-89
2021/12/09 01:07:52;;;;;;;63.28;28.73;;;1.70;99.90;;;;;;4997570;28;20214;-90
2021/12/09 01:10:18;;;;;;;62.27;29.57;;;1.60;99.90;;;;;;4979573;28;20681;-90
2021/12/09 01:12:44;;;;;;;53.60;27.83;;;1.60;99.90;;;;;;4996739;28;20697;-90
2021/12/09 01:15:12;;;;;;;59.30;30.88;;;1.60;99.90;;;;;;4996541;28;20456;-90
2021/12/09 01:17:39;;;;;;;49.95;26.30;;;1.60;99.90;;;;;;4998416;28;20176;-92
2021/12/09 01:20:08;;;;;;;57.28;28.42;;;1.50;99.90;;;;;;4981299;28;20231;-91
2021/12/09 01:22:41;;;;;;;55.63;29.20;;;1.50;99.90;;;;;;4979417;28;20290;-90
2021/12/09 01:25:10;;;;;;;61.42;27.67;;;1.50;99.90;;;;;;4980201;28;20222;-90
2021/12/09 01:27:40;;;;;;;54.50;27.52;;;1.50;99.90;;;;;;5008157;28;20172;-90
2021/12/09 01:30:12;;;;;;;53.35;23.67;;;1.50;99.90;;;;;;4983298;28;20565;-90
2021/12/09 01:32:43;;;;;;;60.05;25.85;;;1.50;99.90;;;;;;5000616;28;20160;-92
2021/12/09 01:35:10;;;;;;;48.92;22.77;;;1.50;99.90;;;;;;4979931;28;20204;-91
2021/12/09 01:37:38;;;;;;;49.80;23.65;;;1.60;99.90;;;;;;4978842;28;20555;-90
2021/12/09 01:40:05;;;;;;;42.90;20.85;;;1.60;99.90;;;;;;4979153;28;20263;-90
2021/12/09 01:42:30;;;;;;;44.35;20.92;;;1.60;99.90;;;;;;4980182;28;20179;-93
2021/12/09 01:44:56;;;;;;;51.47;22.10;;;1.60;99.90;;;;;;4991428;28;20239;-93
2021/12/09 01:47:22;;;;;;;43.63;21.43;;;1.60;99.90;;;;;;5003007;28;20774;-89
2021/12/09 01:49:48;;;;;;;46.53;21.77;;;1.60;99.90;;;;;;5016610;28;20862;-92
2021/12/09 01:52:15;;;;;;;35.97;17.48;;;1.60;99.90;;;;;;5015638;28;20202;-91
2021/12/09 01:54:41;;;;;;;33.58;16.90;;;1.60;99.90;;;;;;5015569;28;20195;-92
2021/12/09 01:57:08;;;;;;;41.23;18.17;;;1.60;99.90;;;;;;4998563;28;20175;-90
2021/12/09 01:59:34;;;;;;;38.83;15.18;;;1.60;99.90;;;;;;5001278;28;20484;-90
2021/12/09 02:02:00;;;;;;;43.22;19.67;;;1.60;99.90;;;;;;4999058;28;20546;-90
2021/12/09 02:04:26;;;;;;;39.13;16.80;;;1.60;99.90;;;;;;4998571;28;20223;-92
2021/12/09 02:06:52;;;;;;;42.50;19.27;;;1.60;99.90;;;;;;5000511;28;20482;-90
2021/12/09 02:09:18;;;;;;;38.05;17.55;;;1.50;99.90;;;;;;5010870;28;20429;-91
2021/12/09 02:11:45;;;;;;;36.33;16.88;;;1.50;99.90;;;;;;4999326;28;20298;-91
2021/12/09 02:14:11;;;;;;;38.55;16.38;;;1.50;99.90;;;;;;5015499;28;20263;-90
2021/12/09 02:16:37;;;;;;;40.22;20.45;;;1.50;99.90;;;;;;5015185;28;20194;-92
2021/12/09 02:19:04;;;;;;;31.67;16.23;;;1.50;99.90;;;;;;4997710;28;20227;-90
2021/12/09 02:21:33;;;;;;;38.88;16.83;;;1.50;99.90;;;;;;5014530;28;20794;-93
2021/12/09 02:24:05;;;;;;;41.60;17.73;;;1.50;99.90;;;;;;4997856;28;20679;-90
2021/12/09 02:26:35;;;;;;;38.80;17.10;;;1.50;99.90;;;;;;5015127;28;20182;-93
2021/12/09 02:29:02;;;;;;;49.60;18.83;;;1.50;99.90;;;;;;4997718;28;20194;-92
2021/12/09 02:31:28;;;;;;;35.58;16.42;;;1.50;99.90;;;;;;4997614;28;20195;-90
2021/12/09 02:33:56;;;;;;;43.90;19.55;;;1.50;99.90;;;;;;5014914;28;20190;-89
2021/12/09 02:36:22;;;;;;;40.30;18.48;;;1.50;99.90;;;;;;5015149;28;20293;-92
2021/12/09 02:38:50;;;;;;;39.40;17.00;;;1.60;99.90;;;;;;4997714;28;20218;-92
2021/12/09 02:41:21;;;;;;;44.00;21.13;;;1.60;99.90;;;;;;4998629;28;20214;-90
2021/12/09 02:43:53;;;;;;;42.22;18.38;;;1.60;99.90;;;;;;4998937;28;20164;-92
2021/12/09 02:46:19;;;;;;;38.67;16.73;;;1.60;99.90;;;;;;4997664;28;20247;-93
2021/12/09 02:48:45;;;;;;;42.37;18.70;;;1.60;99.90;;;;;;5019584;28;20175;-92
2021/12/09 02:51:12;;;;;;;45.05;19.85;;;1.60;99.90;;;;;;5022549;28;20294;-90
2021/12/09 02:53:39;;;;;;;38.45;17.08;;;1.60;99.90;;;;;;5002925;28;20236;-91
2021/12/09 02:56:05;;;;;;;31.02;15.23;;;1.60;99.90;;;;;;5024575;28;20195;-91
2021/12/09 02:58:31;;;;;;;39.20;16.47;;;1.70;99.90;;;;;;5006844;28;20182;-93
2021/12/09 03:01:08;;;;;;;40.53;16.33;;;1.70;99.90;;;;;;5001498;28;20203;-92
2021/12/09 03:03:34;;;;;;;36.13;17.52;;;1.70;99.90;;;;;;5020918;28;20397;-92
2021/12/09 03:06:01;;;;;;;34.22;15.85;;;1.70;99.90;;;;;;5018582;28;20198;-92
2021/12/09 03:08:35;;;;;;;33.97;15.63;;;1.70;99.90;;;;;;5001467;28;20175;-92
2021/12/09 03:11:11;;;;;;;37.10;16.90;;;1.70;99.90;;;;;;5018769;28;20222;-93
2021/12/09 03:13:39;;;;;;;30.17;15.98;;;1.80;99.90;;;;;;5019600;28;20525;-90
2021/12/09 03:16:05;;;;;;;40.63;17.77;;;1.70;99.90;;;;;;5017567;28;20668;-92
2021/12/09 03:18:37;;;;;;;37.95;16.52;;;1.70;99.90;;;;;;5017227;28;20175;-92
2021/12/09 03:21:03;;;;;;;37.78;15.57;;;1.70;99.90;;;;;;5001178;28;20222;-92
2021/12/09 03:23:30;;;;;;;21.20;10.00;;;1.70;99.90;;;;;;5001221;28;20179;-91
2021/12/09 03:25:56;;;;;;;32.67;16.70;;;1.70;99.90;;;;;;5002206;28;20978;-92
2021/12/09 03:28:22;;;;;;;40.40;15.70;;;1.80;99.90;;;;;;5017140;28;20176;-91
2021/12/09 03:30:47;;;;;;;42.03;18.10;;;1.70;99.90;;;;;;5001303;28;20456;-92
2021/12/09 03:33:13;;;;;;;35.23;15.80;;;1.80;99.90;;;;;;5000707;28;20175;-90
2021/12/09 03:35:39;;;;;;;24.33;11.40;;;1.80;99.90;;;;;;5001247;28;20203;-93
2021/12/09 03:38:05;;;;;;;33.43;15.83;;;1.80;99.90;;;;;;5003540;28;20438;-93
2021/12/09 03:40:31;;;;;;;20.47;11.03;;;1.80;99.90;;;;;;5000794;28;20231;-90
2021/12/09 03:42:56;;;;;;;38.43;16.87;;;1.80;99.90;;;;;;5000788;28;20412;-92
2021/12/09 03:45:22;;;;;;;39.73;17.13;;;1.80;99.90;;;;;;5016808;28;20459;-93
2021/12/09 03:47:48;;;;;;;35.27;17.73;;;1.80;99.90;;;;;;5018188;28;20175;-92
2021/12/09 03:50:15;;;;;;;36.57;18.00;;;1.80;99.90;;;;;;5002176;28;20202;-90
2021/12/09 03:52:41;;;;;;;23.50;12.05;;;1.80;99.90;;;;;;5000344;28;20425;-89
2021/12/09 03:55:07;;;;;;;38.90;17.53;;;1.80;99.90;;;;;;5000403;28;20698;-89
2021/12/09 03:57:33;;;;;;;36.42;18.08;;;1.80;99.90;;;;;;5000433;28;20420;-90
2021/12/09 03:59:59;;;;;;;33.47;15.52;;;1.90;99.90;;;;;;5016083;28;20227;-91
2021/12/09 04:02:25;;;;;;;31.30;15.30;;;1.90;99.90;;;;;;5018775;28;20225;-92
2021/12/09 04:04:51;;;;;;;33.30;18.25;;;1.90;99.90;;;;;;5007455;28;20427;-93
2021/12/09 04:07:17;;;;;;;37.63;16.43;;;1.90;99.90;;;;;;5021062;28;20192;-92
2021/12/09 04:09:43;;;;;;;32.10;13.57;;;1.90;99.90;;;;;;5000407;28;20531;-92
2021/12/09 04:12:14;;;;;;;32.37;16.80;;;1.90;99.90;;;;;;5017659;28;20405;-90
2021/12/09 04:14:40;;;;;;;37.65;17.10;;;1.90;99.90;;;;;;5000238;28;20187;-91
2021/12/09 04:17:05;;;;;;;35.40;15.60;;;1.90;99.90;;;;;;5020529;28;20167;-90
2021/12/09 04:19:31;;;;;;;33.47;15.70;;;1.90;99.90;;;;;;5000016;28;20223;-93
2021/12/09 04:22:00;;;;;;;26.07;13.00;;;2.00;99.90;;;;;;5000854;28;20175;-91
2021/12/09 04:24:26;;;;;;;35.55;14.90;;;2.00;99.90;;;;;;5017778;28;20399;-93
2021/12/09 04:26:53;;;;;;;30.53;14.70;;;2.10;99.90;;;;;;5004014;28;20257;-92
2021/12/09 04:29:19;;;;;;;26.65;13.93;;;2.10;99.90;;;;;;5007494;28;20444;-91
2021/12/09 04:31:49;;;;;;;24.58;13.25;;;2.10;99.90;;;;;;5017855;28;20327;-92
2021/12/09 04:34:15;;;;;;;28.08;13.70;;;2.20;99.90;;;;;;5016810;28;20190;-91
2021/12/09 04:36:41;;;;;;;24.35;12.98;;;2.20;99.90;;;;;;5013315;28;20195;-92
2021/12/09 04:39:08;;;;;;;24.43;13.93;;;2.30;99.90;;;;;;4999831;28;20223;-91
2021/12/09 04:41:33;;;;;;;29.17;14.13;;;2.30;99.90;;;;;;5000368;28;20407;-90
2021/12/09 04:43:59;;;;;;;29.70;17.43;;;2.40;99.90;;;;;;4999700;28;20549;-93
2021/12/09 04:46:25;;;;;;;36.70;16.73;;;2.40;99.90;;;;;;5023520;28;20252;-90
2021/12/09 04:48:51;;;;;;;25.33;14.80;;;2.40;99.90;;;;;;5005737;28;20261;-92
2021/12/09 04:51:16;;;;;;;24.43;13.97;;;2.40;99.90;;;;;;4999578;28;20560;-91
2021/12/09 04:53:42;;;;;;;32.50;16.30;;;2.40;99.90;;;;;;5001035;28;20412;-91
2021/12/09 04:56:08;;;;;;;35.60;16.27;;;2.50;99.90;;;;;;5004089;28;20487;-90
2021/12/09 04:58:34;;;;;;;30.67;17.13;;;2.50;99.90;;;;;;5020414;28;20371;-90
2021/12/09 05:01:03;;;;;;;25.20;12.33;;;2.50;99.90;;;;;;4999471;28;20423;-91
2021/12/09 05:03:29;;;;;;;18.98;8.73;;;2.60;99.90;;;;;;5016547;28;20213;-90
2021/12/09 05:05:56;;;;;;;24.33;12.57;;;2.60;99.90;;;;;;5017111;28;20294;-93
2021/12/09 05:08:24;;;;;;;19.88;10.98;;;2.60;99.90;;;;;;4999074;28;20412;-93
2021/12/09 05:10:59;;;;;;;11.75;7.80;;;2.70;99.90;;;;;;4998812;28;20195;-93
2021/12/09 05:13:28;;;;;;;31.08;14.80;;;2.80;99.90;;;;;;5004844;28;20159;-93
2021/12/09 05:15:55;;;;;;;27.33;12.93;;;2.80;99.90;;;;;;5009361;28;20199;-93
2021/12/09 05:18:23;;;;;;;27.13;11.98;;;2.80;99.90;;;;;;5022245;28;20220;-90
2021/12/09 05:20:49;;;;;;;24.98;13.40;;;2.80;99.90;;;;;;5021320;28;20214;-91
2021/12/09 05:23:16;;;;;;;27.30;13.93;;;2.80;99.90;;;;;;5016665;28;20606;-91
2021/12/09 05:25:43;;;;;;;24.70;13.25;;;2.80;99.90;;;;;;5001562;28;20417;-92
2021/12/09 05:28:11;;;;;;;27.20;11.52;;;2.80;99.90;;;;;;5020300;28;20679;-93
2021/12/09 05:32:07;;;;;;;21.73;12.35;;;2.90;99.90;;;;;;5020252;28;20258;-94
2021/12/09 05:33:27;;;;;;;25.35;9.75;;;2.90;99.90;;;;;;5022743;28;20170;-90
2021/12/09 05:35:53;;;;;;;20.98;11.27;;;2.90;99.90;;;;;;5018298;28;20199;-93
2021/12/09 05:38:19;;;;;;;14.15;7.78;;;2.90;99.90;;;;;;5026474;28;20174;-90
2021/12/09 05:40:46;;;;;;;13.13;8.00;;;2.90;99.90;;;;;;5028661;28;20233;-93
2021/12/09 05:43:12;;;;;;;16.02;6.53;;;2.90;99.90;;;;;;5035738;28;20418;-93
2021/12/09 05:45:38;;;;;;;22.83;12.00;;;2.90;99.90;;;;;;5018416;28;20739;-90
2021/12/09 05:48:07;;;;;;;19.70;10.77;;;2.90;99.90;;;;;;5032205;28;20257;-90
2021/12/09 05:50:33;;;;;;;16.83;8.88;;;2.90;99.90;;;;;;5031770;28;20198;-93
2021/12/09 05:52:59;;;;;;;21.55;12.25;;;2.90;99.90;;;;;;5016902;28;20656;-91
2021/12/09 05:55:25;;;;;;;22.40;13.60;;;2.90;99.90;;;;;;4994946;28;20203;-90
2021/12/09 05:57:51;;;;;;;22.17;13.40;;;2.90;99.90;;;;;;5012842;28;20254;-90
2021/12/09 06:00:18;;;;;;;25.13;12.15;;;2.90;99.90;;;;;;5002990;28;20442;-94
2021/12/09 06:02:43;;;;;;;25.65;14.07;;;3.00;99.90;;;;;;5044423;28;20582;-91
2021/12/09 06:05:09;;;;;;;24.57;13.80;;;3.00;99.90;;;;;;5016614;28;20225;-92
2021/12/09 06:07:35;;;;;;;24.30;11.77;;;3.00;99.90;;;;;;5021046;28;20198;-91
2021/12/09 06:10:03;;;;;;;29.40;14.48;;;3.10;99.90;;;;;;5026029;28;20534;-93
2021/12/09 06:12:29;;;;;;;23.48;12.70;;;3.10;99.90;;;;;;4998421;28;20185;-91
2021/12/09 06:14:55;;;;;;;24.35;15.20;;;3.10;99.90;;;;;;4998229;28;20222;-93
2021/12/09 06:17:21;;;;;;;28.70;14.37;;;3.10;99.90;;;;;;5010511;28;20222;-94
2021/12/09 06:19:47;;;;;;;28.30;14.57;;;3.10;99.90;;;;;;5009351;28;20206;-92
2021/12/09 06:22:13;;;;;;;23.10;13.40;;;3.00;99.90;;;;;;5037118;28;20623;-92
2021/12/09 06:24:38;;;;;;;25.92;15.25;;;2.90;99.90;;;;;;5031190;28;20183;-91
2021/12/09 06:27:06;;;;;;;24.03;14.97;;;2.90;99.90;;;;;;5015109;28;20678;-93
2021/12/09 06:29:33;;;;;;;24.83;12.82;;;2.80;99.90;;;;;;5036151;28;20179;-91
2021/12/09 06:31:59;;;;;;;24.90;13.63;;;2.80;99.90;;;;;;5026370;28;20186;-92
2021/12/09 06:34:25;;;;;;;26.48;15.40;;;2.70;99.90;;;;;;5027788;28;20170;-90
2021/12/09 06:36:51;;;;;;;27.40;15.73;;;2.70;99.90;;;;;;5033788;28;20353;-93
2021/12/09 06:39:17;;;;;;;30.97;14.17;;;2.70;99.90;;;;;;5016348;28;20203;-92
2021/12/09 06:41:44;;;;;;;26.45;15.20;;;2.70;99.90;;;;;;5031554;28;20466;-92
2021/12/09 06:44:10;;;;;;;29.23;15.38;;;2.70;99.90;;;;;;5032149;28;20174;-92
2021/12/09 06:46:36;;;;;;;29.53;16.07;;;2.70;99.90;;;;;;5012626;28;20353;-92
2021/12/09 06:49:03;;;;;;;28.52;14.50;;;2.60;99.90;;;;;;5015198;28;20443;-91
2021/12/09 06:51:29;;;;;;;28.38;15.93;;;2.60;99.90;;;;;;5037380;28;20274;-91
2021/12/09 06:53:56;;;;;;;30.53;15.70;;;2.60;99.90;;;;;;5051489;28;20186;-93
2021/12/09 06:56:22;;;;;;;34.15;16.27;;;2.60;99.90;;;;;;5022538;28;20233;-93
2021/12/09 06:58:48;;;;;;;26.20;14.05;;;2.60;99.90;;;;;;5042375;28;20182;-92
2021/12/09 07:01:14;;;;;;;30.77;16.43;;;2.60;99.90;;;;;;5035281;28;20215;-93
2021/12/09 07:03:40;;;;;;;29.30;15.93;;;2.60;99.90;;;;;;5013900;28;20452;-92
2021/12/09 07:06:08;;;;;;;28.10;16.70;;;2.50;99.90;;;;;;5020934;28;20206;-93
2021/12/09 07:08:40;;;;;;;23.92;15.45;;;2.60;99.90;;;;;;5013358;28;20426;-93
2021/12/09 07:11:06;;;;;;;25.77;14.55;;;2.60;99.90;;;;;;5030185;28;20293;-93
2021/12/09 07:13:33;;;;;;;28.88;15.68;;;2.60;99.90;;;;;;5047310;28;20237;-93
2021/12/09 07:15:59;;;;;;;30.45;14.30;;;2.60;99.90;;;;;;5031604;28;20206;-92
2021/12/09 07:18:26;;;;;;;24.35;12.70;;;2.60;99.90;;;;;;5013526;28;20199;-92
2021/12/09 07:20:55;;;;;;;26.27;15.70;;;2.60;99.90;;;;;;5017364;28;20281;-92
2021/12/09 07:23:21;;;;;;;24.48;13.88;;;2.60;99.90;;;;;;5015943;28;20344;-92
2021/12/09 07:25:47;;;;;;;20.73;11.57;;;2.60;99.90;;;;;;5022523;28;20289;-91
2021/12/09 07:28:13;;;;;;;28.80;14.50;;;2.70;99.90;;;;;;5034980;28;20206;-91
2021/12/09 07:30:39;;;;;;;26.08;13.02;;;2.60;99.90;;;;;;5016400;28;20412;-91
2021/12/09 07:33:05;;;;;;;23.63;14.43;;;2.70;99.90;;;;;;5014660;28;20187;-92
2021/12/09 07:35:32;;;;;;;24.93;15.97;;;2.70;99.90;;;;;;5012913;28;20210;-93
2021/12/09 07:37:58;;;;;;;29.20;14.90;;;2.70;99.90;;;;;;5046444;28;20439;-92
2021/12/09 07:40:25;;;;;;;28.17;15.93;;;2.70;99.90;;;;;;5019514;28;20226;-92
2021/12/09 07:42:51;;;;;;;25.42;13.50;;;2.80;99.90;;;;;;5019995;28;20643;-92
2021/12/09 07:45:18;;;;;;;24.90;13.50;;;2.80;99.90;;;;;;5018078;28;20313;-93
2021/12/09 07:47:45;;;;;;;26.52;15.40;;;2.90;99.90;;;;;;5017956;28;20463;-93
2021/12/09 07:50:14;;;;;;;27.10;13.90;;;2.90;99.90;;;;;;5022438;28;20205;-92
2021/12/09 07:52:44;;;;;;;27.65;14.55;;;3.00;99.90;;;;;;5017824;28;20191;-91
2021/12/09 07:55:12;;;;;;;25.40;12.93;;;3.00;99.90;;;;;;5028379;28;20194;-92
2021/12/09 07:57:39;;;;;;;26.23;15.48;;;3.10;99.90;;;;;;5018328;28;20193;-93
2021/12/09 08:00:08;;;;;;;26.27;14.63;;;3.10;99.90;;;;;;5013862;28;20229;-90
2021/12/09 08:02:35;;;;;;;26.45;13.77;;;3.10;99.90;;;;;;5032644;28;20665;-89
2021/12/09 08:05:01;;;;;;;23.98;15.77;;;3.20;99.90;;;;;;5032972;28;20260;-90
2021/12/09 08:07:27;;;;;;;22.70;14.10;;;3.20;99.90;;;;;;5032578;28;20191;-90
2021/12/09 08:09:52;;;;;;;21.80;13.47;;;3.20;99.90;;;;;;5028795;28;20206;-93
2021/12/09 08:12:18;;;;;;;27.67;14.33;;;3.30;99.90;;;;;;5030215;28;20509;-90
2021/12/09 08:14:44;;;;;;;25.97;13.63;;;3.30;99.90;;;;;;5030717;28;20984;-90
2021/12/09 08:17:33;;;;;;;22.23;14.13;;;3.40;99.90;;;;;;5014970;28;20725;-90
2021/12/09 08:19:59;;;;;;;25.65;12.60;;;3.40;99.90;;;;;;5032346;28;20226;-90
2021/12/09 08:22:25;;;;;;;26.98;15.63;;;3.40;99.90;;;;;;5037289;28;20662;-93
2021/12/09 08:24:55;;;;;;;24.50;14.60;;;3.40;99.90;;;;;;5033724;28;20206;-93
2021/12/09 08:27:21;;;;;;;22.20;14.15;;;3.40;99.90;;;;;;5033417;28;20471;-90
2021/12/09 08:29:47;;;;;;;26.42;15.60;;;3.50;99.90;;;;;;5050731;28;20538;-90
2021/12/09 08:32:13;;;;;;;25.10;13.60;;;3.50;99.90;;;;;;5012841;28;20190;-92
2021/12/09 08:34:39;;;;;;;23.87;12.07;;;3.50;99.90;;;;;;5014936;28;20440;-92
2021/12/09 08:37:05;;;;;;;21.95;12.82;;;3.50;99.90;;;;;;5017518;28;20527;-90
2021/12/09 08:39:30;;;;;;;19.63;12.13;;;3.50;99.90;;;;;;5033648;28;20209;-90
2021/12/09 08:41:56;;;;;;;21.63;13.40;;;3.50;99.90;;;;;;5017724;28;20186;-93
2021/12/09 08:44:22;;;;;;;22.35;13.60;;;3.50;99.90;;;;;;5035481;28;20277;-93
2021/12/09 08:46:48;;;;;;;24.00;13.70;;;3.50;99.90;;;;;;5033330;28;20293;-90
2021/12/09 08:49:14;;;;;;;27.40;14.50;;;3.50;99.90;;;;;;5033632;28;20402;-92
2021/12/09 08:51:40;;;;;;;21.13;13.03;;;3.50;99.90;;;;;;5014100;28;20214;-89
2021/12/09 08:54:06;;;;;;;19.37;12.27;;;3.60;99.90;;;;;;5012140;28;20179;-92
2021/12/09 08:56:34;;;;;;;20.95;13.77;;;3.60;99.90;;;;;;5013802;28;20463;-92
2021/12/09 08:59:02;;;;;;;22.25;13.38;;;3.60;99.90;;;;;;5015279;28;20293;-88
2021/12/09 09:01:28;;;;;;;20.13;13.20;;;3.60;99.90;;;;;;5016343;28;20215;-93
2021/12/09 09:03:54;;;;;;;25.53;15.67;;;3.60;99.90;;;;;;5020938;28;20191;-90
2021/12/09 09:06:20;;;;;;;26.40;14.80;;;3.70;99.90;;;;;;5063506;28;20336;-89
2021/12/09 09:08:46;;;;;;;26.80;16.55;;;3.70;99.90;;;;;;5060539;28;20182;-92
2021/12/09 09:11:12;;;;;;;20.63;13.77;;;3.70;99.90;;;;;;5018928;28;20213;-91
2021/12/09 09:13:38;;;;;;;21.70;13.68;;;3.80;99.90;;;;;;5018447;28;20812;-92
2021/12/09 09:16:04;;;;;;;22.63;14.65;;;3.80;99.90;;;;;;5016118;28;20215;-90
2021/12/09 09:18:30;;;;;;;23.63;14.80;;;3.80;99.90;;;;;;5033393;28;20523;-90
2021/12/09 09:20:55;;;;;;;18.50;13.80;;;3.90;99.90;;;;;;5016739;28;20230;-90
2021/12/09 09:23:22;;;;;;;27.73;15.20;;;3.90;99.90;;;;;;5027589;28;20690;-91
2021/12/09 09:25:48;;;;;;;24.42;14.13;;;3.90;99.90;;;;;;5016685;28;20194;-92
2021/12/09 09:28:14;;;;;;;25.92;14.55;;;3.90;99.90;;;;;;5012057;28;20187;-90
2021/12/09 09:30:48;;;;;;;25.07;13.13;;;3.90;99.90;;;;;;5007723;28;20199;-93
2021/12/09 09:33:15;;;;;;;23.65;14.60;;;4.00;99.90;;;;;;5017105;28;20431;-90
2021/12/09 09:35:43;;;;;;;20.25;12.05;;;4.00;99.90;;;;;;5025449;28;20285;-90
2021/12/09 09:38:09;;;;;;;20.38;12.55;;;4.00;99.90;;;;;;5013044;28;20245;-93
2021/12/09 09:41:09;;;;;;;27.27;13.30;;;4.00;99.90;;;;;;5038020;28;20226;-90
2021/12/09 09:46:17;;;;;;;23.30;14.07;;;4.10;99.90;;;;;;5029938;28;20229;-92
2021/12/09 09:48:44;;;;;;;21.27;13.20;;;4.10;99.90;;;;;;5013480;28;20334;-90
2021/12/09 09:51:11;;;;;;;23.00;13.35;;;4.10;99.90;;;;;;5025926;28;20218;-93
2021/12/09 09:53:39;;;;;;;24.58;15.20;;;4.10;99.90;;;;;;5017140;28;20182;-92
2021/12/09 09:56:13;;;;;;;23.48;14.90;;;4.10;99.90;;;;;;5031483;28;20216;-90
2021/12/09 09:58:40;;;;;;;22.10;13.15;;;4.20;99.90;;;;;;5025817;28;20193;-90
2021/12/09 10:01:07;;;;;;;22.95;13.77;;;4.20;99.90;;;;;;5017298;28;20206;-93
2021/12/09 10:03:45;;;;;;;25.35;14.75;;;4.20;99.90;;;;;;5030860;28;20551;-91
2021/12/09 10:06:12;;;;;;;19.98;14.02;;;4.20;99.90;;;;;;5027617;28;20709;-93
2021/12/09 10:08:38;;;;;;;22.40;13.98;;;4.20;99.90;;;;;;5004804;28;20526;-91
2021/12/09 10:11:05;;;;;;;20.80;13.57;;;4.20;99.90;;;;;;5020285;28;20553;-94
2021/12/09 10:13:35;;;;;;;22.02;13.27;;;4.20;99.90;;;;;;5029013;28;20556;-93
2021/12/09 10:16:04;;;;;;;23.05;13.77;;;4.20;99.90;;;;;;5022045;28;20233;-91
2021/12/09 10:18:45;;;;;;;25.48;14.77;;;4.30;99.90;;;;;;5032715;28;20178;-91
2021/12/09 10:21:19;;;;;;;23.90;13.98;;;4.20;99.90;;;;;;5009474;28;20689;-94
2021/12/09 10:23:50;;;;;;;23.65;14.80;;;4.30;99.90;;;;;;5018528;28;20185;-93
2021/12/09 10:26:28;;;;;;;26.35;16.38;;;4.30;99.90;;;;;;5029111;28;20234;-93
2021/12/09 10:29:03;;;;;;;21.80;14.23;;;4.30;99.90;;;;;;5012517;28;20604;-93
2021/12/09 10:31:43;;;;;;;21.48;14.05;;;4.30;99.90;;;;;;5030282;28;20702;-91
2021/12/09 10:36:56;;;;;;;25.95;14.30;;;4.40;99.90;;;;;;5036000;28;20257;-91
2021/12/09 10:39:28;;;;;;;20.23;13.45;;;4.40;99.90;;;;;;5040060;28;20679;-91
2021/12/09 10:41:57;;;;;;;22.02;13.32;;;4.50;99.90;;;;;;5025672;28;20207;-94
2021/12/09 10:44:34;;;;;;;25.60;15.93;;;4.50;99.90;;;;;;5009341;28;20270;-91
2021/12/09 10:47:10;;;;;;;29.15;15.55;;;4.60;99.90;;;;;;5009430;28;20194;-93
2021/12/09 10:50:02;;;;;;;26.13;15.05;;;4.60;99.90;;;;;;5026427;28;20265;-91
2021/12/09 10:52:43;;;;;;;22.70;13.80;;;4.70;99.90;;;;;;5011084;28;20189;-94
2021/12/09 10:55:11;;;;;;;21.63;14.25;;;4.70;99.90;;;;;;5023973;28;20226;-91
2021/12/09 10:57:37;;;;;;;26.88;15.45;;;4.80;99.90;;;;;;5029800;28;20190;-92
2021/12/09 11:00:16;;;;;;;20.47;13.70;;;4.80;99.90;;;;;;5011669;28;20249;-91
2021/12/09 11:03:11;;;;;;;25.33;15.77;;;4.80;99.90;;;;;;5014759;28;20413;-91
2021/12/09 11:05:54;;;;;;;22.10;11.73;;;4.90;99.90;;;;;;5017317;28;20210;-93
2021/12/09 11:08:24;;;;;;;20.33;12.60;;;4.90;99.90;;;;;;5014940;28;20267;-93
2021/12/09 11:11:07;;;;;;;20.17;12.57;;;5.00;99.90;;;;;;5014428;28;20209;-93
2021/12/09 11:13:58;;;;;;;19.23;12.82;;;5.00;99.90;;;;;;5031401;28;20254;-93
2021/12/09 11:16:31;;;;;;;17.80;10.65;;;5.10;99.90;;;;;;5049168;28;20617;-93
2021/12/09 11:19:10;;;;;;;14.63;9.95;;;5.10;99.90;;;;;;5012057;28;20186;-91
2021/12/09 11:21:41;;;;;;;18.05;11.88;;;5.20;99.90;;;;;;5034106;28;20268;-93
2021/12/09 11:24:13;;;;;;;18.45;11.50;;;5.20;99.90;;;;;;5014362;28;20185;-91
2021/12/09 11:29:36;;;;;;;22.85;13.25;;;5.30;99.90;;;;;;5031572;28;20210;-93
2021/12/09 11:32:17;;;;;;;19.15;11.65;;;5.30;99.90;;;;;;5013795;28;20186;-92
2021/12/09 11:39:55;;;;;;;18.38;12.05;;;5.50;99.90;;;;;;5026902;28;20230;-91
2021/12/09 11:42:30;;;;;;;22.08;12.88;;;5.50;99.90;;;;;;5014285;28;20272;-91
2021/12/09 11:44:56;;;;;;;17.52;11.10;;;5.50;99.90;;;;;;5039517;28;20583;-93
2021/12/09 11:47:22;;;;;;;17.25;11.40;;;5.50;99.90;;;;;;5010131;28;20183;-91
2021/12/09 11:49:51;;;;;;;19.23;13.25;;;5.60;99.90;;;;;;5013948;28;20872;-93
2021/12/09 11:52:20;;;;;;;21.30;13.30;;;5.60;99.90;;;;;;5019011;28;20236;-94
2021/12/09 11:55:01;;;;;;;18.70;12.18;;;5.70;99.90;;;;;;5017344;28;20186;-93
2021/12/09 11:57:39;;;;;;;17.08;11.23;;;5.70;99.90;;;;;;5027425;28;20286;-93
2021/12/09 12:12:35;;;;;;;22.75;13.73;;;5.90;99.90;;;;;;5026220;28;20584;-91
2021/12/09 12:21:17;;;;;;;18.15;10.60;;;6.00;99.90;;;;;;5025278;28;20725;-91
2021/12/09 12:24:19;;;;;;;15.75;10.82;;;6.00;99.90;;;;;;5038226;28;20628;-94
2021/12/09 12:38:06;;;;;;;11.52;8.73;;;6.20;99.90;;;;;;5029274;28;20313;-94
2021/12/09 12:40:35;;;;;;;13.50;9.65;;;6.20;99.90;;;;;;4999784;28;20236;-94
2021/12/09 12:43:19;;;;;;;18.33;10.38;;;6.30;99.90;;;;;;5016974;28;20221;-94
2021/12/09 12:49:33;;;;;;;15.00;10.23;;;6.30;99.90;;;;;;5043876;28;20198;-90
2021/12/09 12:54:00;;;;;;;18.10;12.53;;;6.30;99.90;;;;;;5031394;28;20551;-90
2021/12/09 12:56:32;;;;;;;22.38;13.07;;;6.30;99.90;;;;;;5014607;28;20249;-95
2021/12/09 12:59:12;;;;;;;15.98;11.13;;;6.30;99.90;;;;;;5012988;28;20194;-93
2021/12/09 13:01:44;;;;;;;19.67;12.80;;;6.30;99.90;;;;;;5015547;28;20194;-89
2021/12/09 13:04:40;;;;;;;15.57;11.20;;;6.20;99.90;;;;;;5016871;28;20188;-94
2021/12/09 13:07:20;;;;;;;15.07;10.32;;;6.20;99.90;;;;;;5013562;28;20195;-90
2021/12/09 13:10:02;;;;;;;20.98;11.63;;;6.20;99.90;;;;;;5045451;28;20479;-90
2021/12/09 13:12:43;;;;;;;24.77;14.48;;;6.20;99.90;;;;;;5015686;28;20317;-90
2021/12/09 13:15:24;;;;;;;21.75;13.15;;;6.20;99.90;;;;;;5006329;28;20576;-90
2021/12/09 13:18:01;;;;;;;29.40;19.52;;;6.20;99.90;;;;;;5002225;28;20174;-93
2021/12/09 13:20:36;;;;;;;31.15;19.15;;;6.20;99.90;;;;;;5010124;28;20268;-91
2021/12/09 13:23:25;;;;;;;33.10;21.50;;;6.20;99.90;;;;;;5024848;28;20194;-92
2021/12/09 13:26:26;;;;;;;24.65;17.85;;;6.20;99.90;;;;;;5028849;28;20578;-90
2021/12/09 13:29:09;;;;;;;25.00;15.35;;;6.20;99.90;;;;;;5013664;28;20333;-93
2021/12/09 13:31:51;;;;;;;24.77;17.95;;;6.20;99.90;;;;;;5012272;28;20201;-94
2021/12/09 13:34:30;;;;;;;32.08;20.45;;;6.20;99.90;;;;;;5036358;28;20241;-93
2021/12/09 13:40:21;;;;;;;24.65;17.08;;;6.20;99.90;;;;;;5022371;28;20234;-90